sensor_id;sensor_type;location;lat;lon;timestamp;P1;durP1;ratioP1;P2;durP2;ratioP2
53293;SDS011;39181;53.440;5.644;2022-10-31T00:02:21;8.00;;;0.90;;
53293;SDS011;39181;53.440;5.644;2022-10-31T00:04:46;8.40;;;1.05;;
53293;SDS011;39181;53.440;5.644;2022-10-31T00:07:12;11.75;;;1.48;;
53293;SDS011;39181;53.440;5.644;2022-10-31T00:09:37;9.48;;;1.08;;
53293;SDS011;39181;53.440;5.644;2022-10-31T00:12:03;6.57;;;1.10;;
53293;SDS011;39181;53.440;5.644;2022-10-31T00:14:28;5.53;;;1.00;;
53293;SDS011;39181;53.440;5.644;2022-10-31T00:16:54;8.52;;;0.90;;
53293;SDS011;39181;53.440;5.644;2022-10-31T00:19:20;16.08;;;1.17;;
53293;SDS011;39181;53.440;5.644;2022-10-31T00:21:45;13.77;;;3.17;;
53293;SDS011;39181;53.440;5.644;2022-10-31T00:24:11;9.15;;;2.80;;
53293;SDS011;39181;53.440;5.644;2022-10-31T00:26:36;13.30;;;3.03;;
53293;SDS011;39181;53.440;5.644;2022-10-31T00:29:02;11.85;;;2.83;;
53293;SDS011;39181;53.440;5.644;2022-10-31T00:31:28;11.43;;;2.13;;
53293;SDS011;39181;53.440;5.644;2022-10-31T00:33:54;13.48;;;1.70;;
53293;SDS011;39181;53.440;5.644;2022-10-31T00:36:20;7.68;;;1.10;;
53293;SDS011;39181;53.440;5.644;2022-10-31T00:38:46;10.63;;;1.33;;
53293;SDS011;39181;53.440;5.644;2022-10-31T00:41:13;11.02;;;1.40;;
53293;SDS011;39181;53.440;5.644;2022-10-31T00:43:40;9.48;;;1.00;;
53293;SDS011;39181;53.440;5.644;2022-10-31T00:46:06;11.50;;;1.30;;
53293;SDS011;39181;53.440;5.644;2022-10-31T00:48:32;11.82;;;1.38;;
53293;SDS011;39181;53.440;5.644;2022-10-31T00:50:57;7.93;;;0.90;;
53293;SDS011;39181;53.440;5.644;2022-10-31T00:53:23;9.80;;;1.30;;
53293;SDS011;39181;53.440;5.644;2022-10-31T00:55:49;14.52;;;1.45;;
53293;SDS011;39181;53.440;5.644;2022-10-31T00:58:14;14.35;;;1.42;;
53293;SDS011;39181;53.440;5.644;2022-10-31T01:00:40;14.40;;;1.92;;
53293;SDS011;39181;53.440;5.644;2022-10-31T01:03:05;14.73;;;2.35;;
53293;SDS011;39181;53.440;5.644;2022-10-31T01:05:31;12.85;;;3.17;;
53293;SDS011;39181;53.440;5.644;2022-10-31T01:07:57;18.17;;;7.30;;
53293;SDS011;39181;53.440;5.644;2022-10-31T01:10:23;22.02;;;7.82;;
53293;SDS011;39181;53.440;5.644;2022-10-31T01:12:49;19.48;;;8.35;;
53293;SDS011;39181;53.440;5.644;2022-10-31T01:15:19;20.95;;;8.52;;
53293;SDS011;39181;53.440;5.644;2022-10-31T01:17:46;20.77;;;8.05;;
53293;SDS011;39181;53.440;5.644;2022-10-31T01:20:12;22.73;;;8.52;;
53293;SDS011;39181;53.440;5.644;2022-10-31T01:22:39;19.05;;;7.85;;
53293;SDS011;39181;53.440;5.644;2022-10-31T01:25:05;16.67;;;8.93;;
53293;SDS011;39181;53.440;5.644;2022-10-31T01:27:31;26.33;;;10.27;;
53293;SDS011;39181;53.440;5.644;2022-10-31T01:29:57;22.90;;;9.40;;
53293;SDS011;39181;53.440;5.644;2022-10-31T01:32:22;24.58;;;10.48;;
53293;SDS011;39181;53.440;5.644;2022-10-31T01:34:48;23.63;;;10.82;;
53293;SDS011;39181;53.440;5.644;2022-10-31T01:37:14;24.73;;;10.77;;
53293;SDS011;39181;53.440;5.644;2022-10-31T01:39:39;25.70;;;10.90;;
53293;SDS011;39181;53.440;5.644;2022-10-31T01:42:05;25.77;;;11.27;;
53293;SDS011;39181;53.440;5.644;2022-10-31T01:49:29;34.40;;;10.95;;
53293;SDS011;39181;53.440;5.644;2022-10-31T01:52:01;24.52;;;10.20;;
53293;SDS011;39181;53.440;5.644;2022-10-31T01:54:35;24.92;;;10.80;;
53293;SDS011;39181;53.440;5.644;2022-10-31T01:57:05;26.33;;;11.20;;
53293;SDS011;39181;53.440;5.644;2022-10-31T01:59:34;28.95;;;10.65;;
53293;SDS011;39181;53.440;5.644;2022-10-31T02:02:11;25.30;;;11.05;;
53293;SDS011;39181;53.440;5.644;2022-10-31T02:04:37;26.95;;;10.13;;
53293;SDS011;39181;53.440;5.644;2022-10-31T02:07:06;24.33;;;11.35;;
53293;SDS011;39181;53.440;5.644;2022-10-31T02:09:38;25.98;;;11.25;;
53293;SDS011;39181;53.440;5.644;2022-10-31T02:12:05;24.95;;;10.57;;
53293;SDS011;39181;53.440;5.644;2022-10-31T02:14:34;24.63;;;10.48;;
53293;SDS011;39181;53.440;5.644;2022-10-31T02:17:01;26.60;;;10.98;;
53293;SDS011;39181;53.440;5.644;2022-10-31T02:22:08;25.25;;;11.23;;
53293;SDS011;39181;53.440;5.644;2022-10-31T02:24:54;26.70;;;11.73;;
53293;SDS011;39181;53.440;5.644;2022-10-31T02:30:22;21.92;;;10.35;;
53293;SDS011;39181;53.440;5.644;2022-10-31T02:35:50;23.55;;;11.07;;
53293;SDS011;39181;53.440;5.644;2022-10-31T02:38:25;22.70;;;10.88;;
53293;SDS011;39181;53.440;5.644;2022-10-31T02:44:08;26.95;;;12.07;;
53293;SDS011;39181;53.440;5.644;2022-10-31T02:46:57;24.27;;;11.32;;
53293;SDS011;39181;53.440;5.644;2022-10-31T02:49:32;31.27;;;12.77;;
53293;SDS011;39181;53.440;5.644;2022-10-31T02:52:16;26.80;;;11.32;;
53293;SDS011;39181;53.440;5.644;2022-10-31T02:54:47;24.00;;;12.20;;
53293;SDS011;39181;53.440;5.644;2022-10-31T02:57:13;25.65;;;12.52;;
53293;SDS011;39181;53.440;5.644;2022-10-31T02:59:46;26.00;;;11.80;;
53293;SDS011;39181;53.440;5.644;2022-10-31T03:02:20;28.23;;;13.13;;
53293;SDS011;39181;53.440;5.644;2022-10-31T03:08:08;31.08;;;13.20;;
53293;SDS011;39181;53.440;5.644;2022-10-31T03:13:40;23.85;;;12.38;;
53293;SDS011;39181;53.440;5.644;2022-10-31T03:16:13;34.80;;;12.30;;
53293;SDS011;39181;53.440;5.644;2022-10-31T03:18:40;25.83;;;12.60;;
53293;SDS011;39181;53.440;5.644;2022-10-31T03:21:47;29.33;;;12.80;;
53293;SDS011;39181;53.440;5.644;2022-10-31T03:24:18;30.70;;;12.57;;
53293;SDS011;39181;53.440;5.644;2022-10-31T03:26:47;27.65;;;13.07;;
53293;SDS011;39181;53.440;5.644;2022-10-31T03:29:16;32.65;;;15.50;;
53293;SDS011;39181;53.440;5.644;2022-10-31T03:31:49;34.75;;;15.20;;
53293;SDS011;39181;53.440;5.644;2022-10-31T03:34:36;31.45;;;15.50;;
53293;SDS011;39181;53.440;5.644;2022-10-31T03:37:06;38.63;;;16.52;;
53293;SDS011;39181;53.440;5.644;2022-10-31T03:39:35;36.17;;;15.77;;
53293;SDS011;39181;53.440;5.644;2022-10-31T03:42:08;31.38;;;15.27;;
53293;SDS011;39181;53.440;5.644;2022-10-31T03:44:53;35.28;;;15.63;;
53293;SDS011;39181;53.440;5.644;2022-10-31T03:47:30;31.10;;;15.55;;
53293;SDS011;39181;53.440;5.644;2022-10-31T03:49:55;37.95;;;17.10;;
53293;SDS011;39181;53.440;5.644;2022-10-31T03:56:02;35.13;;;16.60;;
53293;SDS011;39181;53.440;5.644;2022-10-31T03:58:03;36.28;;;16.50;;
53293;SDS011;39181;53.440;5.644;2022-10-31T04:00:32;36.38;;;16.77;;
53293;SDS011;39181;53.440;5.644;2022-10-31T04:03:00;41.45;;;17.33;;
53293;SDS011;39181;53.440;5.644;2022-10-31T04:05:40;40.75;;;18.65;;
53293;SDS011;39181;53.440;5.644;2022-10-31T04:08:10;35.15;;;16.23;;
53293;SDS011;39181;53.440;5.644;2022-10-31T04:10:40;36.47;;;17.25;;
53293;SDS011;39181;53.440;5.644;2022-10-31T04:13:09;38.20;;;17.65;;
53293;SDS011;39181;53.440;5.644;2022-10-31T04:15:38;43.40;;;19.75;;
53293;SDS011;39181;53.440;5.644;2022-10-31T04:18:06;37.10;;;19.33;;
53293;SDS011;39181;53.440;5.644;2022-10-31T04:20:33;44.78;;;20.40;;
53293;SDS011;39181;53.440;5.644;2022-10-31T04:23:00;38.92;;;18.52;;
53293;SDS011;39181;53.440;5.644;2022-10-31T04:25:26;46.97;;;20.52;;
53293;SDS011;39181;53.440;5.644;2022-10-31T04:27:52;39.22;;;19.27;;
53293;SDS011;39181;53.440;5.644;2022-10-31T04:30:17;41.50;;;19.95;;
53293;SDS011;39181;53.440;5.644;2022-10-31T04:32:43;43.20;;;20.17;;
53293;SDS011;39181;53.440;5.644;2022-10-31T04:35:08;42.80;;;20.00;;
53293;SDS011;39181;53.440;5.644;2022-10-31T04:37:34;44.15;;;19.98;;
53293;SDS011;39181;53.440;5.644;2022-10-31T04:39:59;41.08;;;20.02;;
53293;SDS011;39181;53.440;5.644;2022-10-31T04:42:26;45.42;;;20.20;;
53293;SDS011;39181;53.440;5.644;2022-10-31T04:44:54;39.17;;;19.02;;
53293;SDS011;39181;53.440;5.644;2022-10-31T04:47:20;40.13;;;18.98;;
53293;SDS011;39181;53.440;5.644;2022-10-31T04:49:45;49.35;;;20.92;;
53293;SDS011;39181;53.440;5.644;2022-10-31T04:52:11;43.25;;;20.65;;
53293;SDS011;39181;53.440;5.644;2022-10-31T04:54:36;41.55;;;19.65;;
53293;SDS011;39181;53.440;5.644;2022-10-31T04:57:02;47.30;;;19.60;;
53293;SDS011;39181;53.440;5.644;2022-10-31T04:59:28;44.83;;;20.70;;
53293;SDS011;39181;53.440;5.644;2022-10-31T05:01:53;45.47;;;19.23;;
53293;SDS011;39181;53.440;5.644;2022-10-31T05:04:19;39.25;;;19.45;;
53293;SDS011;39181;53.440;5.644;2022-10-31T05:06:44;39.00;;;19.15;;
53293;SDS011;39181;53.440;5.644;2022-10-31T05:09:10;43.97;;;18.45;;
53293;SDS011;39181;53.440;5.644;2022-10-31T05:11:35;40.92;;;19.58;;
53293;SDS011;39181;53.440;5.644;2022-10-31T05:14:01;36.30;;;18.83;;
53293;SDS011;39181;53.440;5.644;2022-10-31T05:16:27;47.20;;;18.50;;
53293;SDS011;39181;53.440;5.644;2022-10-31T05:18:53;40.40;;;19.63;;
53293;SDS011;39181;53.440;5.644;2022-10-31T05:21:19;38.60;;;18.90;;
53293;SDS011;39181;53.440;5.644;2022-10-31T05:23:44;39.95;;;19.83;;
53293;SDS011;39181;53.440;5.644;2022-10-31T05:26:10;49.08;;;20.90;;
53293;SDS011;39181;53.440;5.644;2022-10-31T05:28:35;48.40;;;19.55;;
53293;SDS011;39181;53.440;5.644;2022-10-31T05:31:01;52.50;;;20.58;;
53293;SDS011;39181;53.440;5.644;2022-10-31T05:33:27;38.47;;;18.30;;
53293;SDS011;39181;53.440;5.644;2022-10-31T05:35:52;43.47;;;19.08;;
53293;SDS011;39181;53.440;5.644;2022-10-31T05:38:18;41.80;;;18.77;;
53293;SDS011;39181;53.440;5.644;2022-10-31T05:40:43;40.47;;;19.65;;
53293;SDS011;39181;53.440;5.644;2022-10-31T05:43:09;42.05;;;19.63;;
53293;SDS011;39181;53.440;5.644;2022-10-31T05:45:34;49.30;;;20.65;;
53293;SDS011;39181;53.440;5.644;2022-10-31T05:48:00;42.25;;;19.85;;
53293;SDS011;39181;53.440;5.644;2022-10-31T05:50:28;39.55;;;19.05;;
53293;SDS011;39181;53.440;5.644;2022-10-31T05:52:56;39.67;;;19.95;;
53293;SDS011;39181;53.440;5.644;2022-10-31T05:55:23;43.88;;;19.83;;
53293;SDS011;39181;53.440;5.644;2022-10-31T05:57:50;40.85;;;20.67;;
53293;SDS011;39181;53.440;5.644;2022-10-31T06:00:17;41.42;;;19.98;;
53293;SDS011;39181;53.440;5.644;2022-10-31T06:02:43;51.95;;;20.60;;
53293;SDS011;39181;53.440;5.644;2022-10-31T06:05:08;40.28;;;20.33;;
53293;SDS011;39181;53.440;5.644;2022-10-31T06:07:34;43.35;;;20.58;;
53293;SDS011;39181;53.440;5.644;2022-10-31T06:10:01;44.42;;;20.05;;
53293;SDS011;39181;53.440;5.644;2022-10-31T06:12:28;46.13;;;20.30;;
53293;SDS011;39181;53.440;5.644;2022-10-31T06:14:53;46.38;;;22.13;;
53293;SDS011;39181;53.440;5.644;2022-10-31T06:17:19;51.58;;;22.90;;
53293;SDS011;39181;53.440;5.644;2022-10-31T06:19:45;49.78;;;22.33;;
53293;SDS011;39181;53.440;5.644;2022-10-31T06:22:10;52.85;;;23.02;;
53293;SDS011;39181;53.440;5.644;2022-10-31T06:24:36;47.90;;;22.73;;
53293;SDS011;39181;53.440;5.644;2022-10-31T06:27:03;46.88;;;22.92;;
53293;SDS011;39181;53.440;5.644;2022-10-31T06:29:29;48.70;;;23.48;;
53293;SDS011;39181;53.440;5.644;2022-10-31T06:31:54;48.60;;;23.23;;
53293;SDS011;39181;53.440;5.644;2022-10-31T06:34:20;50.28;;;23.05;;
53293;SDS011;39181;53.440;5.644;2022-10-31T06:36:46;54.67;;;25.75;;
53293;SDS011;39181;53.440;5.644;2022-10-31T06:39:12;46.05;;;22.50;;
53293;SDS011;39181;53.440;5.644;2022-10-31T06:41:37;47.03;;;23.27;;
53293;SDS011;39181;53.440;5.644;2022-10-31T06:44:05;47.40;;;23.00;;
53293;SDS011;39181;53.440;5.644;2022-10-31T06:46:31;46.33;;;22.00;;
53293;SDS011;39181;53.440;5.644;2022-10-31T06:48:56;52.13;;;23.80;;
53293;SDS011;39181;53.440;5.644;2022-10-31T06:51:22;43.85;;;21.63;;
53293;SDS011;39181;53.440;5.644;2022-10-31T06:53:47;48.90;;;22.92;;
53293;SDS011;39181;53.440;5.644;2022-10-31T06:56:13;48.92;;;23.25;;
53293;SDS011;39181;53.440;5.644;2022-10-31T06:58:39;48.75;;;22.88;;
53293;SDS011;39181;53.440;5.644;2022-10-31T07:01:07;46.17;;;22.25;;
53293;SDS011;39181;53.440;5.644;2022-10-31T07:03:33;54.55;;;22.25;;
53293;SDS011;39181;53.440;5.644;2022-10-31T07:05:58;49.83;;;24.30;;
53293;SDS011;39181;53.440;5.644;2022-10-31T07:08:24;49.03;;;22.38;;
53293;SDS011;39181;53.440;5.644;2022-10-31T07:10:55;54.13;;;23.70;;
53293;SDS011;39181;53.440;5.644;2022-10-31T07:15:51;46.33;;;20.75;;
53293;SDS011;39181;53.440;5.644;2022-10-31T07:18:19;44.17;;;20.58;;
53293;SDS011;39181;53.440;5.644;2022-10-31T07:20:46;43.30;;;22.05;;
53293;SDS011;39181;53.440;5.644;2022-10-31T07:23:12;43.03;;;21.40;;
53293;SDS011;39181;53.440;5.644;2022-10-31T07:25:39;40.58;;;21.60;;
53293;SDS011;39181;53.440;5.644;2022-10-31T07:28:05;38.90;;;21.27;;
53293;SDS011;39181;53.440;5.644;2022-10-31T07:30:31;41.40;;;21.50;;
53293;SDS011;39181;53.440;5.644;2022-10-31T07:32:57;41.22;;;21.00;;
53293;SDS011;39181;53.440;5.644;2022-10-31T07:35:23;47.60;;;19.92;;
53293;SDS011;39181;53.440;5.644;2022-10-31T07:37:50;39.80;;;19.42;;
53293;SDS011;39181;53.440;5.644;2022-10-31T07:40:16;37.70;;;19.65;;
53293;SDS011;39181;53.440;5.644;2022-10-31T07:42:43;37.38;;;20.08;;
53293;SDS011;39181;53.440;5.644;2022-10-31T07:45:11;33.88;;;19.23;;
53293;SDS011;39181;53.440;5.644;2022-10-31T07:47:44;37.25;;;19.95;;
53293;SDS011;39181;53.440;5.644;2022-10-31T07:50:16;39.47;;;20.05;;
53293;SDS011;39181;53.440;5.644;2022-10-31T07:52:43;35.27;;;17.83;;
53293;SDS011;39181;53.440;5.644;2022-10-31T07:55:09;44.60;;;20.33;;
53293;SDS011;39181;53.440;5.644;2022-10-31T07:57:35;39.10;;;20.80;;
53293;SDS011;39181;53.440;5.644;2022-10-31T08:00:04;38.30;;;19.38;;
53293;SDS011;39181;53.440;5.644;2022-10-31T08:02:31;34.50;;;18.25;;
53293;SDS011;39181;53.440;5.644;2022-10-31T08:04:56;31.48;;;18.52;;
53293;SDS011;39181;53.440;5.644;2022-10-31T08:07:22;31.33;;;18.08;;
53293;SDS011;39181;53.440;5.644;2022-10-31T08:09:47;35.22;;;19.33;;
53293;SDS011;39181;53.440;5.644;2022-10-31T08:12:13;35.22;;;19.15;;
53293;SDS011;39181;53.440;5.644;2022-10-31T08:14:38;32.33;;;19.15;;
53293;SDS011;39181;53.440;5.644;2022-10-31T08:17:04;35.13;;;18.83;;
53293;SDS011;39181;53.440;5.644;2022-10-31T08:19:31;30.92;;;20.58;;
53293;SDS011;39181;53.440;5.644;2022-10-31T08:21:57;30.45;;;18.08;;
53293;SDS011;39181;53.440;5.644;2022-10-31T08:24:23;29.02;;;18.77;;
53293;SDS011;39181;53.440;5.644;2022-10-31T08:26:49;29.83;;;18.20;;
53293;SDS011;39181;53.440;5.644;2022-10-31T08:29:14;31.80;;;19.10;;
53293;SDS011;39181;53.440;5.644;2022-10-31T08:31:41;33.75;;;19.27;;
53293;SDS011;39181;53.440;5.644;2022-10-31T08:34:07;30.48;;;20.35;;
53293;SDS011;39181;53.440;5.644;2022-10-31T08:36:33;30.23;;;18.42;;
53293;SDS011;39181;53.440;5.644;2022-10-31T08:38:58;32.92;;;17.60;;
53293;SDS011;39181;53.440;5.644;2022-10-31T08:41:24;29.52;;;18.45;;
53293;SDS011;39181;53.440;5.644;2022-10-31T08:43:50;28.80;;;17.52;;
53293;SDS011;39181;53.440;5.644;2022-10-31T08:46:16;26.20;;;17.60;;
53293;SDS011;39181;53.440;5.644;2022-10-31T08:48:41;29.17;;;18.05;;
53293;SDS011;39181;53.440;5.644;2022-10-31T08:51:08;30.88;;;17.83;;
53293;SDS011;39181;53.440;5.644;2022-10-31T08:53:34;32.60;;;17.85;;
53293;SDS011;39181;53.440;5.644;2022-10-31T08:55:59;26.85;;;17.25;;
53293;SDS011;39181;53.440;5.644;2022-10-31T08:58:25;24.80;;;15.23;;
53293;SDS011;39181;53.440;5.644;2022-10-31T09:00:51;21.10;;;15.75;;
53293;SDS011;39181;53.440;5.644;2022-10-31T09:03:20;24.15;;;15.40;;
53293;SDS011;39181;53.440;5.644;2022-10-31T09:05:48;23.17;;;14.68;;
53293;SDS011;39181;53.440;5.644;2022-10-31T09:08:14;23.88;;;14.18;;
53293;SDS011;39181;53.440;5.644;2022-10-31T09:10:40;23.40;;;14.20;;
53293;SDS011;39181;53.440;5.644;2022-10-31T09:13:06;19.67;;;14.40;;
53293;SDS011;39181;53.440;5.644;2022-10-31T09:15:35;25.38;;;14.52;;
53293;SDS011;39181;53.440;5.644;2022-10-31T09:18:03;20.58;;;15.38;;
53293;SDS011;39181;53.440;5.644;2022-10-31T09:20:32;24.50;;;14.88;;
53293;SDS011;39181;53.440;5.644;2022-10-31T09:22:59;19.33;;;14.18;;
53293;SDS011;39181;53.440;5.644;2022-10-31T09:25:27;18.65;;;13.35;;
53293;SDS011;39181;53.440;5.644;2022-10-31T09:27:57;18.85;;;13.90;;
53293;SDS011;39181;53.440;5.644;2022-10-31T09:30:23;22.95;;;14.23;;
53293;SDS011;39181;53.440;5.644;2022-10-31T09:33:00;21.75;;;13.35;;
53293;SDS011;39181;53.440;5.644;2022-10-31T09:35:27;22.13;;;12.48;;
53293;SDS011;39181;53.440;5.644;2022-10-31T09:37:53;17.38;;;11.68;;
53293;SDS011;39181;53.440;5.644;2022-10-31T09:49:01;19.13;;;11.82;;
53293;SDS011;39181;53.440;5.644;2022-10-31T09:51:46;19.42;;;11.60;;
53293;SDS011;39181;53.440;5.644;2022-10-31T09:54:19;17.55;;;11.30;;
53293;SDS011;39181;53.440;5.644;2022-10-31T09:56:59;17.63;;;12.15;;
53293;SDS011;39181;53.440;5.644;2022-10-31T10:02:06;17.65;;;10.60;;
53293;SDS011;39181;53.440;5.644;2022-10-31T10:07:22;13.88;;;10.32;;
53293;SDS011;39181;53.440;5.644;2022-10-31T10:10:15;19.60;;;9.93;;
53293;SDS011;39181;53.440;5.644;2022-10-31T10:16:28;16.15;;;8.77;;
53293;SDS011;39181;53.440;5.644;2022-10-31T10:27:27;14.75;;;8.77;;
53293;SDS011;39181;53.440;5.644;2022-10-31T10:30:15;12.55;;;7.68;;
53293;SDS011;39181;53.440;5.644;2022-10-31T10:35:19;14.03;;;8.33;;
53293;SDS011;39181;53.440;5.644;2022-10-31T10:37:50;14.35;;;7.60;;
53293;SDS011;39181;53.440;5.644;2022-10-31T10:40:29;16.50;;;8.63;;
53293;SDS011;39181;53.440;5.644;2022-10-31T10:59:46;13.80;;;6.65;;
53293;SDS011;39181;53.440;5.644;2022-10-31T11:02:17;9.30;;;6.45;;
53293;SDS011;39181;53.440;5.644;2022-10-31T11:04:44;13.30;;;6.80;;
53293;SDS011;39181;53.440;5.644;2022-10-31T11:07:13;11.40;;;6.78;;
53293;SDS011;39181;53.440;5.644;2022-10-31T11:09:39;10.45;;;6.28;;
53293;SDS011;39181;53.440;5.644;2022-10-31T11:12:06;7.72;;;5.80;;
53293;SDS011;39181;53.440;5.644;2022-10-31T11:14:54;10.15;;;6.15;;
53293;SDS011;39181;53.440;5.644;2022-10-31T11:17:29;11.02;;;5.95;;
53293;SDS011;39181;53.440;5.644;2022-10-31T11:20:05;11.05;;;6.53;;
53293;SDS011;39181;53.440;5.644;2022-10-31T11:22:48;12.23;;;6.60;;
53293;SDS011;39181;53.440;5.644;2022-10-31T11:25:23;8.60;;;5.93;;
53293;SDS011;39181;53.440;5.644;2022-10-31T11:28:00;10.38;;;5.32;;
53293;SDS011;39181;53.440;5.644;2022-10-31T11:30:30;10.38;;;5.30;;
53293;SDS011;39181;53.440;5.644;2022-10-31T11:33:11;9.85;;;5.05;;
53293;SDS011;39181;53.440;5.644;2022-10-31T11:35:51;8.40;;;6.25;;
53293;SDS011;39181;53.440;5.644;2022-10-31T11:38:19;10.02;;;6.18;;
53293;SDS011;39181;53.440;5.644;2022-10-31T11:40:51;9.95;;;6.13;;
53293;SDS011;39181;53.440;5.644;2022-10-31T11:43:18;11.48;;;7.03;;
53293;SDS011;39181;53.440;5.644;2022-10-31T11:45:44;10.65;;;7.60;;
53293;SDS011;39181;53.440;5.644;2022-10-31T11:48:15;13.38;;;7.60;;
53293;SDS011;39181;53.440;5.644;2022-10-31T11:50:42;13.13;;;7.70;;
53293;SDS011;39181;53.440;5.644;2022-10-31T11:53:15;12.57;;;7.63;;
53293;SDS011;39181;53.440;5.644;2022-10-31T11:55:42;11.27;;;6.80;;
53293;SDS011;39181;53.440;5.644;2022-10-31T11:58:19;11.93;;;7.63;;
53293;SDS011;39181;53.440;5.644;2022-10-31T12:00:51;10.00;;;6.43;;
53293;SDS011;39181;53.440;5.644;2022-10-31T12:06:24;10.73;;;6.65;;
53293;SDS011;39181;53.440;5.644;2022-10-31T12:08:57;13.25;;;6.65;;
53293;SDS011;39181;53.440;5.644;2022-10-31T12:11:43;10.40;;;6.72;;
53293;SDS011;39181;53.440;5.644;2022-10-31T12:16:59;11.18;;;7.25;;
53293;SDS011;39181;53.440;5.644;2022-10-31T12:19:59;13.00;;;6.20;;
53293;SDS011;39181;53.440;5.644;2022-10-31T12:37:25;10.20;;;6.10;;
53293;SDS011;39181;53.440;5.644;2022-10-31T12:43:16;7.80;;;6.03;;
53293;SDS011;39181;53.440;5.644;2022-10-31T12:45:57;9.25;;;5.50;;
53293;SDS011;39181;53.440;5.644;2022-10-31T12:48:28;9.55;;;6.05;;
53293;SDS011;39181;53.440;5.644;2022-10-31T12:59:43;6.38;;;4.63;;
53293;SDS011;39181;53.440;5.644;2022-10-31T13:02:19;7.28;;;4.75;;
53293;SDS011;39181;53.440;5.644;2022-10-31T13:07:27;7.35;;;3.80;;
53293;SDS011;39181;53.440;5.644;2022-10-31T13:10:10;10.38;;;4.47;;
53293;SDS011;39181;53.440;5.644;2022-10-31T13:12:44;7.63;;;4.07;;
53293;SDS011;39181;53.440;5.644;2022-10-31T13:15:25;6.07;;;3.63;;
53293;SDS011;39181;53.440;5.644;2022-10-31T13:17:57;6.00;;;3.80;;
53293;SDS011;39181;53.440;5.644;2022-10-31T13:20:29;8.20;;;4.57;;
53293;SDS011;39181;53.440;5.644;2022-10-31T13:25:53;11.07;;;4.85;;
53293;SDS011;39181;53.440;5.644;2022-10-31T13:28:25;10.25;;;5.05;;
53293;SDS011;39181;53.440;5.644;2022-10-31T13:30:59;8.80;;;5.05;;
53293;SDS011;39181;53.440;5.644;2022-10-31T13:33:29;11.95;;;5.03;;
53293;SDS011;39181;53.440;5.644;2022-10-31T13:36:12;10.05;;;4.40;;
53293;SDS011;39181;53.440;5.644;2022-10-31T13:38:59;11.02;;;4.75;;
53293;SDS011;39181;53.440;5.644;2022-10-31T13:42:03;10.27;;;4.85;;
53293;SDS011;39181;53.440;5.644;2022-10-31T13:44:54;8.20;;;4.82;;
53293;SDS011;39181;53.440;5.644;2022-10-31T13:47:28;13.43;;;5.10;;
53293;SDS011;39181;53.440;5.644;2022-10-31T13:50:04;10.05;;;5.32;;
53293;SDS011;39181;53.440;5.644;2022-10-31T13:52:46;13.00;;;6.30;;
53293;SDS011;39181;53.440;5.644;2022-10-31T13:55:34;12.18;;;7.25;;
53293;SDS011;39181;53.440;5.644;2022-10-31T13:58:02;10.68;;;6.82;;
53293;SDS011;39181;53.440;5.644;2022-10-31T14:00:30;16.23;;;7.45;;
53293;SDS011;39181;53.440;5.644;2022-10-31T14:02:59;12.93;;;7.05;;
53293;SDS011;39181;53.440;5.644;2022-10-31T14:05:26;10.43;;;6.82;;
53293;SDS011;39181;53.440;5.644;2022-10-31T14:07:57;12.73;;;6.82;;
53293;SDS011;39181;53.440;5.644;2022-10-31T14:10:36;12.02;;;6.93;;
53293;SDS011;39181;53.440;5.644;2022-10-31T14:15:56;12.75;;;5.35;;
53293;SDS011;39181;53.440;5.644;2022-10-31T14:18:32;12.52;;;5.93;;
53293;SDS011;39181;53.440;5.644;2022-10-31T14:21:00;10.65;;;5.82;;
53293;SDS011;39181;53.440;5.644;2022-10-31T14:26:30;11.65;;;5.40;;
53293;SDS011;39181;53.440;5.644;2022-10-31T14:28:58;8.88;;;4.80;;
53293;SDS011;39181;53.440;5.644;2022-10-31T14:31:42;12.15;;;5.45;;
53293;SDS011;39181;53.440;5.644;2022-10-31T14:48:03;7.05;;;3.58;;
53293;SDS011;39181;53.440;5.644;2022-10-31T14:53:16;9.32;;;3.50;;
53293;SDS011;39181;53.440;5.644;2022-10-31T14:55:54;6.82;;;2.78;;
53293;SDS011;39181;53.440;5.644;2022-10-31T15:01:07;8.65;;;3.85;;
53293;SDS011;39181;53.440;5.644;2022-10-31T15:03:43;7.20;;;3.35;;
53293;SDS011;39181;53.440;5.644;2022-10-31T15:06:12;9.25;;;3.75;;
53293;SDS011;39181;53.440;5.644;2022-10-31T15:11:17;10.60;;;3.85;;
53293;SDS011;39181;53.440;5.644;2022-10-31T15:16:21;7.88;;;2.45;;
53293;SDS011;39181;53.440;5.644;2022-10-31T15:19:00;6.18;;;2.67;;
53293;SDS011;39181;53.440;5.644;2022-10-31T15:21:29;4.80;;;2.45;;
53293;SDS011;39181;53.440;5.644;2022-10-31T15:24:00;10.10;;;2.90;;
53293;SDS011;39181;53.440;5.644;2022-10-31T15:26:30;15.18;;;3.65;;
53293;SDS011;39181;53.440;5.644;2022-10-31T15:29:03;10.43;;;3.53;;
53293;SDS011;39181;53.440;5.644;2022-10-31T15:31:31;13.70;;;3.15;;
53293;SDS011;39181;53.440;5.644;2022-10-31T15:34:11;8.00;;;2.70;;
53293;SDS011;39181;53.440;5.644;2022-10-31T15:36:44;8.48;;;2.03;;
53293;SDS011;39181;53.440;5.644;2022-10-31T15:39:14;3.72;;;1.73;;
53293;SDS011;39181;53.440;5.644;2022-10-31T15:41:53;7.60;;;2.00;;
53293;SDS011;39181;53.440;5.644;2022-10-31T15:44:22;9.63;;;2.38;;
53293;SDS011;39181;53.440;5.644;2022-10-31T15:46:54;10.75;;;3.08;;
53293;SDS011;39181;53.440;5.644;2022-10-31T15:51:50;8.48;;;3.65;;
53293;SDS011;39181;53.440;5.644;2022-10-31T15:54:16;7.75;;;3.60;;
53293;SDS011;39181;53.440;5.644;2022-10-31T15:56:42;9.25;;;3.75;;
53293;SDS011;39181;53.440;5.644;2022-10-31T15:59:14;12.55;;;5.10;;
53293;SDS011;39181;53.440;5.644;2022-10-31T16:01:53;8.15;;;4.40;;
53293;SDS011;39181;53.440;5.644;2022-10-31T16:04:25;12.75;;;4.95;;
53293;SDS011;39181;53.440;5.644;2022-10-31T16:07:01;10.25;;;4.85;;
53293;SDS011;39181;53.440;5.644;2022-10-31T16:09:36;6.93;;;4.93;;
53293;SDS011;39181;53.440;5.644;2022-10-31T16:12:02;11.70;;;4.40;;
53293;SDS011;39181;53.440;5.644;2022-10-31T16:14:29;11.50;;;4.65;;
53293;SDS011;39181;53.440;5.644;2022-10-31T16:16:57;9.32;;;3.65;;
53293;SDS011;39181;53.440;5.644;2022-10-31T16:19:25;13.45;;;3.80;;
53293;SDS011;39181;53.440;5.644;2022-10-31T16:21:54;10.98;;;4.03;;
53293;SDS011;39181;53.440;5.644;2022-10-31T16:24:30;8.70;;;3.78;;
53293;SDS011;39181;53.440;5.644;2022-10-31T16:27:03;16.40;;;3.80;;
53293;SDS011;39181;53.440;5.644;2022-10-31T16:29:35;14.23;;;3.83;;
53293;SDS011;39181;53.440;5.644;2022-10-31T16:32:04;9.07;;;3.55;;
53293;SDS011;39181;53.440;5.644;2022-10-31T16:34:29;11.57;;;3.67;;
53293;SDS011;39181;53.440;5.644;2022-10-31T16:36:55;11.90;;;3.75;;
53293;SDS011;39181;53.440;5.644;2022-10-31T16:39:20;14.43;;;3.95;;
53293;SDS011;39181;53.440;5.644;2022-10-31T16:41:48;15.23;;;3.67;;
53293;SDS011;39181;53.440;5.644;2022-10-31T16:44:23;12.15;;;3.40;;
53293;SDS011;39181;53.440;5.644;2022-10-31T16:47:09;8.82;;;3.80;;
53293;SDS011;39181;53.440;5.644;2022-10-31T16:49:38;11.52;;;4.63;;
53293;SDS011;39181;53.440;5.644;2022-10-31T16:52:03;13.02;;;5.43;;
53293;SDS011;39181;53.440;5.644;2022-10-31T16:54:29;16.98;;;5.88;;
53293;SDS011;39181;53.440;5.644;2022-10-31T16:56:55;15.38;;;5.88;;
53293;SDS011;39181;53.440;5.644;2022-10-31T16:59:22;13.63;;;5.70;;
53293;SDS011;39181;53.440;5.644;2022-10-31T17:01:48;13.45;;;6.20;;
53293;SDS011;39181;53.440;5.644;2022-10-31T17:04:14;11.68;;;5.63;;
53293;SDS011;39181;53.440;5.644;2022-10-31T17:06:40;14.02;;;6.82;;
53293;SDS011;39181;53.440;5.644;2022-10-31T17:09:06;15.45;;;7.05;;